Terminal Aerodrome Forecast
Issued by NWS Shreveport, LA

Home | Current Version | Previous Version | Text Only | Print | Product List | Glossary On
Versions: 1 2 3 4 5 6 7 8 9 10 11 12 13 14 15 16 17
000
FTUS44 KSHV 240541
TAFELD
TAF
KELD 240541Z 2406/2506 VRB03KT P6SM SCT070
      TEMPO 2406/2408 BKN070
     FM241500 32006KT P6SM SKC
     FM241700 34008KT P6SM SCT040
     FM250000 00000KT P6SM SKC=

USA.gov is the U.S. government's official web portal to all federal, state and local government web resources and services.